64511 station(s) have been heard in the last 24 hours.

<< 61 62 63 64 65 66 67 >>
  Name/Id Latest heard Comment/Other Map
Symbol SP2FH-13 1788472670 GarniWX Sig:-94dBm UV:0.0 Bat:OK Map
Symbol YD0BCX-6 1788472670 Time: 2026-09-04 05:00:00, Temp: 26C, Desc: Sunny, WS: 3.2 m/s, Hum: 75 % Map
Symbol 16D00 1788472670 16-D-00 Proteccin Civil REMER / Subdelegacin del Gobierno en Cuenca Map
Symbol LD9AT 1788472670 Map
Symbol BD1EPP-1 1788472670 E1[@udp://bh1osw.nrlptt.com:60050 NRL] Map
Symbol SP2WGN 1788472670 Map
Symbol SA6BWX-2 1788472670 Map
Symbol KC5SDY-9 1788472670 !SN! Map
Symbol SQ9KFZ-2 1788472670 LoRa iGATE & Digi 434.855 @1k2 Map
Symbol JF6XQT-9 1788472669 Map
Symbol K6RAX B 1788472669 70cm Voice (D-Star) 431.17500MHz +0.0000MHz Map
Symbol VA2VDC 1788472669 VA2VDC EN DEPLACEMENT Map
Symbol 3UTR7-10 1788472669 APRS Direwolf iGate @ 144.8MHz in Leeuwarden by hobbyscoop.nl Map
Symbol N9LQP-2 1788472669 W2, INn-N, DecCoDigi Map
Symbol DB0SN-B 1788472669 70cm Voice (D-Star) 439.50000MHz -7.6000MHz Map
Symbol NS9RC A 1788472669 1.2 Voice 1292.20000 -20 MHz Map
Symbol KK6MIG-13 1788472669 eMB57 Map
Symbol 4S6VNN 1788472669 Varunas QTH Map
Symbol 9M2EDK-N 1788472669 70cm MMDVM Voice (C4FM) 433.55000MHz +0.0000MHz, 9M2EDK_Pi-Star_ND Map
Symbol WA9TT-12 1788472669 'www.WA9TT.com Larry|3 Map
Symbol F6KBR-2 1788472669 Digi APRS66 * Foret de CONAT * 990m Map
Symbol PR7DC-10 1788472669 https://sdr.pr7jpa.qsl.br - OpenWebRX+ HEIGHT=13 GAIN=9 Map
Symbol JS2VVH-5 1788472669 via APRS TX for iOS Map
Symbol ER-ER3TWO 1788472669 145.338MHz T088 R31k MD-LINK 145.3375 T88.5 Map
Symbol KG5MMT-15 1788472669 CBH iGATE Map
Symbol 439.075-L 1788472669 TOFF -7600kHz R80k Lodz SR7LD Map
Symbol LGU 1788472669 WX3in1Plus2.0 U=13.9V,T=33.1C/91.5F Map
Symbol IW3HBX-3 1788472669 MQTT+Node-Red+LoRa 433.775MHz +20dBm - NuvoloSo - Giallo Onda Di Calore Allerta Map
Symbol VK2ADG-13 1788472669 Node-RED Ecowitt GW2000C Map
Symbol IW1DGK-N 1788472669 70cm MMDVM Voice (C4FM) 430.80000MHz +0.0000MHz, IW1DGK_Pi-Star_ND Map
Symbol NA6RF-N 1788472669 70cm MMDVM Voice (C4FM) 434.00000MHz +0.0000MHz, NA6RF_Pi-Star_ND Map
Symbol PY2NO-B 1788472669 70cm Voice (D-Star) 430.00000MHz +0.0000MHz Map
Symbol KB6HOH-13 1788472669 144.910MHz Winlink VARA FM Wide Gateway Map
Symbol HS5VLP C 1788472669 2m Voice (D-Star) 146.21250MHz +0.0000MHz Map
Symbol LD1FE 1788472669 U=13.5V,T=19.8C Map
Symbol AI5TX-1 1788472669 Map
Symbol w7mlh-13 1788472669 eMB64 Map
Symbol BA8AED-12 1788472669 FMO-V4,STATION,CERT:imNGTU8EaHVzZXJDZXJ0GQPpZkJBOEFFRBkBO1gg3eezybmAAq9eN2eJ4N5ae9iqBPlGif_86Pt1Dw97ZTMaake9dhpsKPD2WECI5Uyg_uzE1TlvrqAtLorIO2AUm2WV7VJtDyOjTzNRZe0gLS0cwcdMjKtyP4FHrMgiFKiub84A75znQIHnjaQG,CN,(),47.108.56.119,P1883,F5000KM,U32/128,SIG:20OR4BxxhW4mb82nEJhnzQhDWJBhgyIax1BDELlKA4RY4Afzppac5pY9oGIc36GmCBLYdf06srCn5OG_9IzWAw Map
Symbol G8CYM-N 1788472669 70cm MMDVM Voice (C4FM) 438.80000MHz +0.0000MHz, G8CYM_Pi-Star_ND Map
Symbol NS9RC B 1788472669 440 Voice 442.09375 +5.00 MHz Map
Symbol JR8YPB-10 1788472669 Toyotomi 1K2/9K6 Dual I-Gate Map
Symbol EA2Z-D 1788472669 70cm MMDVM Voice (DMR) 434.47500MHz +0.0000MHz, APRS for DMRGateway Map
Symbol EA1AB-D 1788472669 70cm MMDVM Voice (DMR) 430.40000MHz +0.0000MHz, APRS for DMRGateway Map
Symbol DL3YDJ 1788472669 Phone: +49 1755367392 Map
Symbol LZ0IOS-R 1788472669 70cm MMDVM Voice (C4FM) 439.07500MHz -7.6000MHz, LZ0IOS_Pi-Star_RPT Map
Symbol F4ILM-4 1788472669 LoRa Digipeater via F5KIA Map
Symbol K4VCM 1788472669 146.790 PL 107.2 - Echolink Node 79190 Map
Symbol DL2OLK-Y 1788472669 70cm MMDVM Voice (C4FM) 438.80000MHz -7.6000MHz, APRS for YSFGateway Map
Symbol AJ9FE-10 1788472669 WX3in1Plus2.0-james@aj9fe.radio Map
Symbol VE7RSJ 1788472669 Bear Flats Alt:2970ft Map